Souda — SVBH5 — position and weather

sailwx.info

Track history (hours):
 
Tides and Currents Weather Stations Pressure Air Temp Water Temp Dewpoint Dewpoint Depression Visibility Wind Speed Wind Dir Waves Ship Positions

Souda

Last reported at 2015-May-26 18:26 UTC. Time now 2015-May-30 02:27 UTC.
Position N 36°43' E 023°59'.

Length 88 m; draft 6.6 m.

Type: Tanker. MMSI: 241109000.

Date/timePositionNaut miles runAvg speedWind from/ knotsBaromVisibWave heightAir tempDewpointWater temp
2015-May-26 18:26N 36°43' E 023°59'7 8.2
2015-May-26 17:33N 36°50' E 023°58'16 8.2
2015-May-26 15:33N 37°06' E 023°53'10 8.0
2015-May-26 14:19N 37°16' E 023°49'6 7.7
2015-May-26 13:33N 37°21' E 023°48'8 7.9
2015-May-26 12:33N 37°29' E 023°46'8 7.9
2015-May-26 11:33N 37°37' E 023°43'8 7.9
2015-May-26 10:33N 37°44' E 023°40'7 7.3
2015-May-26 09:33N 37°50' E 023°34'8 8.1
2015-May-26 08:33N 37°51' E 023°24'9 8.3
2015-May-26 07:28N 37°53' E 023°12'6 0.3
2015-May-25 14:30N 37°54' E 023°06'5 4.9
2015-May-25 13:33N 37°53' E 023°11'8 7.8
2015-May-25 12:33N 37°51' E 023°21'8 8.1
2015-May-25 11:33N 37°50' E 023°31'7 7.2
2015-May-25 10:33N 37°49' E 023°40'8 8.2
2015-May-25 09:33N 37°42' E 023°45'8 8.1
2015-May-25 08:32N 37°34' E 023°47'126 2.6
2015-May-23 08:07N 35°29' E 024°08'4 7.7
2015-May-23 07:33N 35°30' E 024°13'7 7.4
2015-May-23 06:33N 35°38' E 024°14'41 8.0
2015-May-23 01:28N 36°18' E 024°05'57 7.8
2015-May-22 18:08N 37°14' E 023°51'13 7.8
2015-May-22 16:27N 37°27' E 023°47'7 8.0
2015-May-22 15:33N 37°34' E 023°45'9 8.5
2015-May-22 14:33N 37°42' E 023°41'8 8.3
2015-May-22 13:33N 37°49' E 023°37'8 8.3
2015-May-22 12:33N 37°50' E 023°26'9 8.5
2015-May-22 11:33N 37°52' E 023°16'8 7.9
2015-May-22 10:29N 37°55' E 023°06'0 0.2
2015-May-22 09:08N 37°55' E 023°05'5 0.1
2015-May-20 08:13N 37°53' E 023°11'5 8.1
2015-May-20 07:33N 37°52' E 023°18'8 8.1
2015-May-20 06:33N 37°50' E 023°28'7 6.9
2015-May-20 05:33N 37°55' E 023°34'2 2.2
2015-May-20 04:28N 37°57' E 023°35'0 0.0
2015-May-20 03:28N 37°57' E 023°35'0 0.0
2015-May-20 02:31N 37°57' E 023°35'0 0.0
2015-May-20 01:31N 37°57' E 023°35'0 0.0
2015-May-20 00:31N 37°57' E 023°35'0 0.0
2015-May-19 23:31N 37°57' E 023°35'0 0.0
2015-May-19 22:28N 37°57' E 023°35'0 0.0
2015-May-19 21:28N 37°57' E 023°35'0 0.0
2015-May-19 20:31N 37°57' E 023°35'0 0.0
2015-May-19 19:31N 37°57' E 023°35'0 0.0
2015-May-19 18:28N 37°57' E 023°35'0 0.0
2015-May-19 17:31N 37°57' E 023°35'0 0.0
2015-May-19 16:31N 37°57' E 023°35'0 0.0
2015-May-19 15:28N 37°57' E 023°35'0 0.0
2015-May-19 14:31N 37°57' E 023°35'0 0.0
2015-May-19 13:31N 37°57' E 023°35'0 0.0
2015-May-19 12:25N 37°57' E 023°35'0 0.0
2015-May-19 11:28N 37°57' E 023°35'0 0.0
2015-May-19 10:25N 37°57' E 023°35'0 0.0
2015-May-19 09:31N 37°57' E 023°35'0 0.0
2015-May-19 08:31N 37°57' E 023°35'0 0.0
2015-May-19 07:31N 37°57' E 023°35'0 0.0
2015-May-19 06:31N 37°57' E 023°35'0 0.0
2015-May-19 05:28N 37°57' E 023°35'0 0.0
2015-May-19 04:33N 37°57' E 023°35'4 3.8
2015-May-19 03:33N 37°54' E 023°34'5 5.5
2015-May-19 02:33N 37°50' E 023°30'8 7.7
2015-May-19 01:33N 37°51' E 023°20'9 8.1
2015-May-19 00:27N 37°53' E 023°09'4 0.2
2015-May-18 07:26N 37°55' E 023°05'0 0.0
2015-May-18 06:28N 37°55' E 023°05'0 0.0
2015-May-18 05:33N 37°55' E 023°05'0 0.0
2015-May-18 04:09N 37°55' E 023°05'0 0.4
2015-May-18 03:24N 37°55' E 023°06'1 1.6
2015-May-18 02:33N 37°54' E 023°05'2 0.2
2015-May-17 20:06N 37°54' E 023°03'0 0.0
2015-May-17 19:06N 37°54' E 023°03'1 0.1
2015-May-17 13:33N 37°54' E 023°04'8 8.0
2015-May-17 12:32N 37°52' E 023°14'9 9.2
2015-May-17 11:34N 37°51' E 023°25'9 8.8
2015-May-17 10:33N 37°50' E 023°36'8 8.1
2015-May-17 09:33N 37°44' E 023°43'8 8.4
2015-May-17 08:33N 37°39' E 023°51'9 8.2
2015-May-17 07:29N 37°36' E 024°02'56 7.1
2015-May-16 23:32N 38°28' E 024°28'  
Track history (hours):
 
Tides and Currents Weather Stations Pressure Air Temp Water Temp Dewpoint Dewpoint Depression Visibility Wind Speed Wind Dir Waves Ship Positions

Souda

Last reported at 2015-May-26 18:26 UTC. Time now 2015-May-30 02:27 UTC.
Position N 36°43' E 023°59'.

Length 88 m; draft 6.6 m.

Type: Tanker. MMSI: 241109000.

Date/timePositionNaut miles runAvg speedWind from/ knotsBaromVisibWave heightAir tempDewpointWater temp
2015-May-26 18:26N 36°43' E 023°59'7 8.2
2015-May-26 17:33N 36°50' E 023°58'16 8.2
2015-May-26 15:33N 37°06' E 023°53'10 8.0
2015-May-26 14:19N 37°16' E 023°49'6 7.7
2015-May-26 13:33N 37°21' E 023°48'8 7.9
2015-May-26 12:33N 37°29' E 023°46'8 7.9
2015-May-26 11:33N 37°37' E 023°43'8 7.9
2015-May-26 10:33N 37°44' E 023°40'7 7.3
2015-May-26 09:33N 37°50' E 023°34'8 8.1
2015-May-26 08:33N 37°51' E 023°24'9 8.3
2015-May-26 07:28N 37°53' E 023°12'6 0.3
2015-May-25 14:30N 37°54' E 023°06'5 4.9
2015-May-25 13:33N 37°53' E 023°11'8 7.8
2015-May-25 12:33N 37°51' E 023°21'8 8.1
2015-May-25 11:33N 37°50' E 023°31'7 7.2
2015-May-25 10:33N 37°49' E 023°40'8 8.2
2015-May-25 09:33N 37°42' E 023°45'8 8.1
2015-May-25 08:32N 37°34' E 023°47'126 2.6
2015-May-23 08:07N 35°29' E 024°08'4 7.7
2015-May-23 07:33N 35°30' E 024°13'7 7.4
2015-May-23 06:33N 35°38' E 024°14'41 8.0
2015-May-23 01:28N 36°18' E 024°05'57 7.8
2015-May-22 18:08N 37°14' E 023°51'13 7.8
2015-May-22 16:27N 37°27' E 023°47'7 8.0
2015-May-22 15:33N 37°34' E 023°45'9 8.5
2015-May-22 14:33N 37°42' E 023°41'8 8.3
2015-May-22 13:33N 37°49' E 023°37'8 8.3
2015-May-22 12:33N 37°50' E 023°26'9 8.5
2015-May-22 11:33N 37°52' E 023°16'8 7.9
2015-May-22 10:29N 37°55' E 023°06'0 0.2
2015-May-22 09:08N 37°55' E 023°05'5 0.1
2015-May-20 08:13N 37°53' E 023°11'5 8.1
2015-May-20 07:33N 37°52' E 023°18'8 8.1
2015-May-20 06:33N 37°50' E 023°28'7 6.9
2015-May-20 05:33N 37°55' E 023°34'2 2.2
2015-May-20 04:28N 37°57' E 023°35'0 0.0
2015-May-20 03:28N 37°57' E 023°35'0 0.0
2015-May-20 02:31N 37°57' E 023°35'0 0.0
2015-May-20 01:31N 37°57' E 023°35'0 0.0
2015-May-20 00:31N 37°57' E 023°35'0 0.0
2015-May-19 23:31N 37°57' E 023°35'0 0.0
2015-May-19 22:28N 37°57' E 023°35'0 0.0
2015-May-19 21:28N 37°57' E 023°35'0 0.0
2015-May-19 20:31N 37°57' E 023°35'0 0.0
2015-May-19 19:31N 37°57' E 023°35'0 0.0
2015-May-19 18:28N 37°57' E 023°35'0 0.0
2015-May-19 17:31N 37°57' E 023°35'0 0.0
2015-May-19 16:31N 37°57' E 023°35'0 0.0
2015-May-19 15:28N 37°57' E 023°35'0 0.0
2015-May-19 14:31N 37°57' E 023°35'0 0.0
2015-May-19 13:31N 37°57' E 023°35'0 0.0
2015-May-19 12:25N 37°57' E 023°35'0 0.0
2015-May-19 11:28N 37°57' E 023°35'0 0.0
2015-May-19 10:25N 37°57' E 023°35'0 0.0
2015-May-19 09:31N 37°57' E 023°35'0 0.0
2015-May-19 08:31N 37°57' E 023°35'0 0.0
2015-May-19 07:31N 37°57' E 023°35'0 0.0
2015-May-19 06:31N 37°57' E 023°35'0 0.0
2015-May-19 05:28N 37°57' E 023°35'0 0.0
2015-May-19 04:33N 37°57' E 023°35'4 3.8
2015-May-19 03:33N 37°54' E 023°34'5 5.5
2015-May-19 02:33N 37°50' E 023°30'8 7.7
2015-May-19 01:33N 37°51' E 023°20'9 8.1
2015-May-19 00:27N 37°53' E 023°09'4 0.2
2015-May-18 07:26N 37°55' E 023°05'0 0.0
2015-May-18 06:28N 37°55' E 023°05'0 0.0
2015-May-18 05:33N 37°55' E 023°05'0 0.0
2015-May-18 04:09N 37°55' E 023°05'0 0.4
2015-May-18 03:24N 37°55' E 023°06'1 1.6
2015-May-18 02:33N 37°54' E 023°05'2 0.2
2015-May-17 20:06N 37°54' E 023°03'0 0.0
2015-May-17 19:06N 37°54' E 023°03'1 0.1
2015-May-17 13:33N 37°54' E 023°04'8 8.0
2015-May-17 12:32N 37°52' E 023°14'9 9.2
2015-May-17 11:34N 37°51' E 023°25'9 8.8
2015-May-17 10:33N 37°50' E 023°36'8 8.1
2015-May-17 09:33N 37°44' E 023°43'8 8.4
2015-May-17 08:33N 37°39' E 023°51'9 8.2
2015-May-17 07:29N 37°36' E 024°02'56 7.1
2015-May-16 23:32N 38°28' E 024°28'  

Dump ship's entire track history